Time;durP1;ratioP1;P1;durP2;ratioP2;P2;SDS_P1;SDS_P2;PMS_P1;PMS_P2;Temp;Humidity;BMP_temperature;BMP_pressure;BME280_temperature;BME280_humidity;BME280_pressure;Samples;Min_cycle;Max_cycle;Signal;HPM_P1;HPM_P2
2024/01/25 00:00:48;;;;;;;;;;;17.10;61.90;;;;;;5039972;28;1552;-67
2024/01/25 00:03:13;;;;;;;;;;;17.10;62.00;;;;;;5040064;28;1800;-67
2024/01/25 00:05:39;;;;;;;;;;;17.10;62.00;;;;;;5046481;28;1320;-68
2024/01/25 00:08:05;;;;;;;;;;;17.10;62.00;;;;;;5038731;28;1917;-67
2024/01/25 00:10:31;;;;;;;;;;;17.10;62.00;;;;;;5036970;28;1463;-67
2024/01/25 00:12:56;;;;;;;;;;;17.10;62.00;;;;;;5041443;28;1512;-67
2024/01/25 00:15:22;;;;;;;;;;;17.10;62.10;;;;;;5041693;28;1579;-67
2024/01/25 00:17:47;;;;;;;;;;;17.10;62.10;;;;;;5025216;28;1376;-66
2024/01/25 00:20:13;;;;;;;;;;;17.10;62.00;;;;;;5038279;28;1252;-67
2024/01/25 00:22:38;;;;;;;;;;;17.10;62.10;;;;;;5039100;28;1622;-67
2024/01/25 00:25:07;;;;;;;;;;;17.10;62.10;;;;;;5039454;28;1478;-66
2024/01/25 00:27:32;;;;;;;;;;;17.10;62.10;;;;;;5039335;28;1573;-67
2024/01/25 00:29:58;;;;;;;;;;;17.10;62.10;;;;;;5039927;28;1886;-66
2024/01/25 00:32:23;;;;;;;;;;;17.10;62.10;;;;;;5035992;28;1579;-67
2024/01/25 00:34:49;;;;;;;;;;;17.10;62.20;;;;;;5038741;28;1311;-68
2024/01/25 00:37:14;;;;;;;;;;;17.10;62.20;;;;;;5036850;28;1754;-68
2024/01/25 00:39:40;;;;;;;;;;;17.00;62.10;;;;;;5037149;28;1113;-68
2024/01/25 00:42:05;;;;;;;;;;;17.10;62.20;;;;;;5037197;28;1231;-68
2024/01/25 00:44:31;;;;;;;;;;;17.10;62.20;;;;;;5037747;28;1456;-67
2024/01/25 00:46:57;;;;;;;;;;;17.10;62.20;;;;;;5045738;28;1558;-67
2024/01/25 00:49:23;;;;;;;;;;;17.10;62.20;;;;;;5038116;28;1920;-67
2024/01/25 00:51:48;;;;;;;;;;;17.10;62.20;;;;;;5035732;28;1370;-67
2024/01/25 00:54:14;;;;;;;;;;;17.00;62.20;;;;;;5040118;28;1158;-67
2024/01/25 00:56:40;;;;;;;;;;;17.00;62.20;;;;;;5042310;28;1491;-67
2024/01/25 00:59:05;;;;;;;;;;;17.10;62.30;;;;;;5039205;28;1378;-67
2024/01/25 01:01:31;;;;;;;;;;;17.00;62.20;;;;;;5037641;28;1525;-67
2024/01/25 01:03:57;;;;;;;;;;;17.00;62.20;;;;;;5038315;28;1734;-67
2024/01/25 01:06:22;;;;;;;;;;;17.10;62.30;;;;;;5038473;28;1414;-68
2024/01/25 01:08:48;;;;;;;;;;;17.00;62.30;;;;;;5038046;28;1977;-68
2024/01/25 01:11:13;;;;;;;;;;;17.00;62.30;;;;;;5068926;28;1250;-68
2024/01/25 01:13:39;;;;;;;;;;;17.00;62.30;;;;;;5040321;28;1530;-67
2024/01/25 01:16:04;;;;;;;;;;;17.00;62.30;;;;;;5041413;28;1327;-67
2024/01/25 01:18:30;;;;;;;;;;;17.00;62.30;;;;;;5037567;28;1041;-67
2024/01/25 01:20:55;;;;;;;;;;;17.00;62.30;;;;;;5040063;28;1458;-67
2024/01/25 01:23:21;;;;;;;;;;;17.00;62.30;;;;;;5037389;28;898;-66
2024/01/25 01:25:46;;;;;;;;;;;17.00;62.30;;;;;;5040848;28;1451;-66
2024/01/25 01:28:12;;;;;;;;;;;17.00;62.30;;;;;;5043908;28;1902;-66
2024/01/25 01:30:41;;;;;;;;;;;17.00;62.40;;;;;;5041852;28;1454;-67
2024/01/25 01:33:07;;;;;;;;;;;17.00;62.30;;;;;;5041689;28;1592;-66
2024/01/25 01:35:33;;;;;;;;;;;17.00;62.40;;;;;;5039761;28;1245;-68
2024/01/25 01:37:58;;;;;;;;;;;17.00;62.30;;;;;;5050528;28;1407;-66
2024/01/25 01:40:24;;;;;;;;;;;17.00;62.40;;;;;;5042527;28;912;-67
2024/01/25 01:42:49;;;;;;;;;;;17.00;62.40;;;;;;5040625;28;1340;-68
2024/01/25 01:45:14;;;;;;;;;;;17.00;62.40;;;;;;5041219;28;1796;-67
2024/01/25 01:47:40;;;;;;;;;;;17.00;62.40;;;;;;5040440;28;1519;-67
2024/01/25 01:50:06;;;;;;;;;;;17.00;62.40;;;;;;5069519;28;1894;-67
2024/01/25 01:52:31;;;;;;;;;;;17.00;62.40;;;;;;5075800;28;1499;-68
2024/01/25 01:54:57;;;;;;;;;;;17.00;62.40;;;;;;5042446;28;1460;-67
2024/01/25 01:57:22;;;;;;;;;;;17.00;62.40;;;;;;5041757;28;1393;-67
2024/01/25 01:59:49;;;;;;;;;;;17.00;62.50;;;;;;5045544;28;1480;-68
2024/01/25 02:02:15;;;;;;;;;;;17.00;62.50;;;;;;5072038;28;1650;-68
2024/01/25 02:04:41;;;;;;;;;;;17.00;62.50;;;;;;5071753;28;1387;-68
2024/01/25 02:07:07;;;;;;;;;;;17.00;62.50;;;;;;5042599;28;1382;-68
2024/01/25 02:09:32;;;;;;;;;;;17.00;62.50;;;;;;5040861;28;1910;-67
2024/01/25 02:11:58;;;;;;;;;;;17.00;62.50;;;;;;5049441;28;1382;-68
2024/01/25 02:14:24;;;;;;;;;;;17.00;62.50;;;;;;5044749;28;1481;-68
2024/01/25 02:16:49;;;;;;;;;;;17.00;62.60;;;;;;5040265;28;1561;-66
2024/01/25 02:19:15;;;;;;;;;;;17.00;62.50;;;;;;5039367;28;1409;-67
2024/01/25 02:21:41;;;;;;;;;;;17.00;62.50;;;;;;5042144;28;1445;-68
2024/01/25 02:24:06;;;;;;;;;;;17.00;62.50;;;;;;5043623;28;1311;-68
2024/01/25 02:26:32;;;;;;;;;;;17.00;62.60;;;;;;5040546;28;1303;-68
2024/01/25 02:28:57;;;;;;;;;;;17.00;62.50;;;;;;5041596;28;1898;-68
2024/01/25 02:31:23;;;;;;;;;;;17.00;62.60;;;;;;5040982;28;1431;-67
2024/01/25 02:33:48;;;;;;;;;;;17.00;62.60;;;;;;5071104;28;1419;-68
2024/01/25 02:36:14;;;;;;;;;;;17.00;62.60;;;;;;5041067;28;1623;-68
2024/01/25 02:38:39;;;;;;;;;;;17.00;62.60;;;;;;5041379;28;1438;-68
2024/01/25 02:41:05;;;;;;;;;;;17.00;62.60;;;;;;5043067;28;1349;-67
2024/01/25 02:43:30;;;;;;;;;;;16.90;62.50;;;;;;5041797;28;1324;-68
2024/01/25 02:45:56;;;;;;;;;;;16.90;62.50;;;;;;5040470;28;1355;-68
2024/01/25 02:48:21;;;;;;;;;;;16.90;62.60;;;;;;5038694;28;1960;-68
2024/01/25 02:50:47;;;;;;;;;;;16.90;62.60;;;;;;5041897;28;1257;-68
2024/01/25 02:53:12;;;;;;;;;;;17.00;62.70;;;;;;5043840;28;1243;-68
2024/01/25 02:55:38;;;;;;;;;;;16.90;62.60;;;;;;5037487;28;1575;-68
2024/01/25 02:58:03;;;;;;;;;;;16.90;62.60;;;;;;5043381;28;1364;-67
2024/01/25 03:00:29;;;;;;;;;;;16.90;62.70;;;;;;5041468;28;1454;-69
2024/01/25 03:02:54;;;;;;;;;;;16.90;62.70;;;;;;5041079;28;1426;-68
2024/01/25 03:05:19;;;;;;;;;;;16.90;62.70;;;;;;5040476;28;1371;-68
2024/01/25 03:07:45;;;;;;;;;;;16.90;62.70;;;;;;5040192;28;1292;-68
2024/01/25 03:10:11;;;;;;;;;;;16.90;62.70;;;;;;5039891;28;1993;-69
2024/01/25 03:12:36;;;;;;;;;;;16.90;62.70;;;;;;5038429;28;1053;-68
2024/01/25 03:15:02;;;;;;;;;;;16.90;62.70;;;;;;5037655;28;1466;-67
2024/01/25 03:17:27;;;;;;;;;;;16.90;62.70;;;;;;5071235;28;1628;-68
2024/01/25 03:19:53;;;;;;;;;;;16.90;62.70;;;;;;5039037;28;1729;-68
2024/01/25 03:22:18;;;;;;;;;;;16.90;62.70;;;;;;5038920;28;1514;-67
2024/01/25 03:24:43;;;;;;;;;;;16.90;62.70;;;;;;5037768;28;1420;-67
2024/01/25 03:27:13;;;;;;;;;;;16.90;62.70;;;;;;5040748;28;1434;-67
2024/01/25 03:29:42;;;;;;;;;;;16.90;62.80;;;;;;5031928;28;1965;-68
2024/01/25 03:32:08;;;;;;;;;;;16.90;62.80;;;;;;5071802;28;1445;-67
2024/01/25 03:34:33;;;;;;;;;;;16.90;62.70;;;;;;5042595;28;1454;-66
2024/01/25 03:36:59;;;;;;;;;;;16.90;62.70;;;;;;5039765;28;1461;-66
2024/01/25 03:39:24;;;;;;;;;;;16.90;62.70;;;;;;5038176;28;1542;-67
2024/01/25 03:41:50;;;;;;;;;;;16.90;62.70;;;;;;5038036;28;1336;-66
2024/01/25 03:44:15;;;;;;;;;;;16.90;62.70;;;;;;5056354;28;1666;-67
2024/01/25 03:46:41;;;;;;;;;;;16.90;62.70;;;;;;5044128;28;1431;-67
2024/01/25 03:49:06;;;;;;;;;;;16.90;62.80;;;;;;5036234;28;1890;-66
2024/01/25 03:51:31;;;;;;;;;;;16.90;62.70;;;;;;5037826;28;1117;-67
2024/01/25 03:53:58;;;;;;;;;;;16.90;62.70;;;;;;5039354;28;1424;-68
2024/01/25 03:56:23;;;;;;;;;;;16.90;63.10;;;;;;5043662;28;1280;-67
2024/01/25 03:58:49;;;;;;;;;;;16.90;62.80;;;;;;5035789;28;1455;-66
2024/01/25 04:01:15;;;;;;;;;;;16.90;62.80;;;;;;5031871;28;1383;-67
2024/01/25 04:03:41;;;;;;;;;;;16.90;62.80;;;;;;5037836;28;1509;-66
2024/01/25 04:06:06;;;;;;;;;;;16.90;62.80;;;;;;5042110;28;1608;-67
2024/01/25 04:08:32;;;;;;;;;;;16.90;62.80;;;;;;5039364;28;1947;-68
2024/01/25 04:10:57;;;;;;;;;;;16.90;62.80;;;;;;5039409;28;1522;-68
2024/01/25 04:13:23;;;;;;;;;;;16.90;62.80;;;;;;5042643;28;974;-66
2024/01/25 04:15:48;;;;;;;;;;;16.90;62.80;;;;;;5039822;28;1337;-67
2024/01/25 04:18:13;;;;;;;;;;;16.90;62.80;;;;;;5046560;28;1381;-66
2024/01/25 04:20:40;;;;;;;;;;;16.90;62.80;;;;;;5038355;28;883;-67
2024/01/25 04:23:05;;;;;;;;;;;16.90;62.80;;;;;;5041073;28;1617;-67
2024/01/25 04:25:31;;;;;;;;;;;16.90;62.80;;;;;;5046456;28;1421;-68
2024/01/25 04:27:56;;;;;;;;;;;16.90;62.80;;;;;;5041893;28;1902;-66
2024/01/25 04:30:21;;;;;;;;;;;16.90;62.80;;;;;;5042374;28;1261;-68
2024/01/25 04:32:47;;;;;;;;;;;16.90;62.80;;;;;;5041763;28;1253;-68
2024/01/25 04:35:13;;;;;;;;;;;16.90;62.80;;;;;;5038395;28;1374;-68
2024/01/25 04:37:38;;;;;;;;;;;16.90;62.90;;;;;;5036253;28;1073;-67
2024/01/25 04:40:05;;;;;;;;;;;16.90;62.80;;;;;;5038499;28;1344;-68
2024/01/25 04:42:30;;;;;;;;;;;16.90;62.80;;;;;;5037048;28;1506;-68
2024/01/25 04:44:55;;;;;;;;;;;16.90;62.90;;;;;;5038966;28;978;-68
2024/01/25 04:47:21;;;;;;;;;;;16.90;62.90;;;;;;5039328;28;1389;-68
2024/01/25 04:49:47;;;;;;;;;;;16.90;62.90;;;;;;5039017;28;1989;-67
2024/01/25 04:52:12;;;;;;;;;;;16.90;62.90;;;;;;5037171;28;1338;-69
2024/01/25 04:54:38;;;;;;;;;;;16.90;62.90;;;;;;5038064;28;1592;-67
2024/01/25 04:57:06;;;;;;;;;;;16.90;62.90;;;;;;5040564;28;1356;-68
2024/01/25 04:59:34;;;;;;;;;;;16.90;62.90;;;;;;5040671;28;1415;-67
2024/01/25 05:02:00;;;;;;;;;;;16.90;62.90;;;;;;5036347;28;1593;-66
2024/01/25 05:04:25;;;;;;;;;;;16.90;62.90;;;;;;5036786;28;1429;-67
2024/01/25 05:06:51;;;;;;;;;;;16.90;62.90;;;;;;5045380;28;1509;-68
2024/01/25 05:09:16;;;;;;;;;;;16.90;62.90;;;;;;5038402;28;1914;-67
2024/01/25 05:11:42;;;;;;;;;;;16.90;62.90;;;;;;5066378;28;1479;-67
2024/01/25 05:14:07;;;;;;;;;;;16.90;62.80;;;;;;5039609;28;1375;-67
2024/01/25 05:16:33;;;;;;;;;;;16.90;62.80;;;;;;5069969;28;1486;-67
2024/01/25 05:18:58;;;;;;;;;;;17.00;62.80;;;;;;5036890;28;1233;-67
2024/01/25 05:21:23;;;;;;;;;;;17.00;62.70;;;;;;5037706;28;1572;-68
2024/01/25 05:23:49;;;;;;;;;;;17.00;62.50;;;;;;5037812;28;1348;-69
2024/01/25 05:26:15;;;;;;;;;;;17.00;62.40;;;;;;5073500;28;1526;-67
2024/01/25 05:28:40;;;;;;;;;;;17.10;62.30;;;;;;5038282;28;1961;-67
2024/01/25 05:31:12;;;;;;;;;;;17.10;62.30;;;;;;5036871;28;1468;-67
2024/01/25 05:33:38;;;;;;;;;;;17.10;62.10;;;;;;5036594;28;1220;-68
2024/01/25 05:36:03;;;;;;;;;;;17.20;62.10;;;;;;5038667;28;1541;-68
2024/01/25 05:38:29;;;;;;;;;;;17.20;61.90;;;;;;5036771;28;1264;-66
2024/01/25 05:40:54;;;;;;;;;;;17.20;61.80;;;;;;5039572;28;1244;-66
2024/01/25 05:43:20;;;;;;;;;;;17.20;61.70;;;;;;5040194;28;1616;-67
2024/01/25 05:45:46;;;;;;;;;;;17.30;61.60;;;;;;5037482;28;1471;-67
2024/01/25 05:48:12;;;;;;;;;;;17.30;61.50;;;;;;5037952;28;1898;-67
2024/01/25 05:50:37;;;;;;;;;;;17.30;61.40;;;;;;5037029;28;1574;-67
2024/01/25 05:53:03;;;;;;;;;;;17.30;61.30;;;;;;5045556;28;1495;-67
2024/01/25 05:55:28;;;;;;;;;;;17.40;61.30;;;;;;5038986;28;1280;-67
2024/01/25 05:57:54;;;;;;;;;;;17.40;61.20;;;;;;5040791;28;1541;-68
2024/01/25 06:00:19;;;;;;;;;;;17.40;61.10;;;;;;5038658;28;1770;-67
2024/01/25 06:02:45;;;;;;;;;;;17.40;61.00;;;;;;5034453;28;1327;-67
2024/01/25 06:05:11;;;;;;;;;;;17.40;61.00;;;;;;5037150;28;1627;-68
2024/01/25 06:07:37;;;;;;;;;;;17.50;61.00;;;;;;5070348;28;1594;-67
2024/01/25 06:10:03;;;;;;;;;;;17.50;60.90;;;;;;5038492;28;1902;-68
2024/01/25 06:12:29;;;;;;;;;;;17.50;60.80;;;;;;5042611;28;1398;-67
2024/01/25 06:14:54;;;;;;;;;;;17.50;60.80;;;;;;5038277;28;1351;-67
2024/01/25 06:17:20;;;;;;;;;;;17.50;60.80;;;;;;5070870;28;1958;-68
2024/01/25 06:19:45;;;;;;;;;;;17.50;60.80;;;;;;5041737;28;1334;-68
2024/01/25 06:22:12;;;;;;;;;;;17.50;60.70;;;;;;5037286;28;2349;-69
2024/01/25 06:24:38;;;;;;;;;;;17.50;60.70;;;;;;5038693;28;1373;-69
2024/01/25 06:27:03;;;;;;;;;;;17.50;60.70;;;;;;5071597;28;1371;-69
2024/01/25 06:29:29;;;;;;;;;;;17.50;60.70;;;;;;5039522;28;1969;-69
2024/01/25 06:31:54;;;;;;;;;;;17.50;60.70;;;;;;5039163;28;1533;-71
2024/01/25 06:34:20;;;;;;;;;;;17.50;60.80;;;;;;5039707;28;1745;-71
2024/01/25 06:36:45;;;;;;;;;;;17.50;60.80;;;;;;5041232;28;1392;-70
2024/01/25 06:39:11;;;;;;;;;;;17.50;60.80;;;;;;5040690;28;1634;-70
2024/01/25 06:41:36;;;;;;;;;;;17.50;60.80;;;;;;5040792;28;1354;-70
2024/01/25 06:44:02;;;;;;;;;;;17.50;60.90;;;;;;5040358;28;1369;-70
2024/01/25 06:46:28;;;;;;;;;;;17.40;60.90;;;;;;5056700;28;1381;-70
2024/01/25 06:48:53;;;;;;;;;;;17.50;60.90;;;;;;5062655;28;1894;-69
2024/01/25 06:51:19;;;;;;;;;;;17.40;60.90;;;;;;5043526;28;1697;-70
2024/01/25 06:53:45;;;;;;;;;;;17.40;60.90;;;;;;5037812;28;1209;-69
2024/01/25 06:56:10;;;;;;;;;;;17.50;61.00;;;;;;5040078;28;1249;-69
2024/01/25 06:58:36;;;;;;;;;;;17.40;61.00;;;;;;5039955;28;1145;-68
2024/01/25 07:01:01;;;;;;;;;;;17.40;61.00;;;;;;5048170;28;1658;-69
2024/01/25 07:03:27;;;;;;;;;;;17.40;61.00;;;;;;5039042;28;1158;-69
2024/01/25 07:05:52;;;;;;;;;;;17.40;61.00;;;;;;5048213;28;1371;-69
2024/01/25 07:08:18;;;;;;;;;;;17.40;61.00;;;;;;5042277;28;1914;-68
2024/01/25 07:10:44;;;;;;;;;;;17.40;61.10;;;;;;5041486;28;1237;-68
2024/01/25 07:13:09;;;;;;;;;;;17.40;61.10;;;;;;5040551;28;1598;-67
2024/01/25 07:15:35;;;;;;;;;;;17.40;61.10;;;;;;5038505;28;1304;-67
2024/01/25 07:18:00;;;;;;;;;;;17.40;61.10;;;;;;5041665;28;1671;-69
2024/01/25 07:20:26;;;;;;;;;;;17.40;61.10;;;;;;5038388;28;1573;-68
2024/01/25 07:22:51;;;;;;;;;;;17.40;61.10;;;;;;5037305;28;1308;-67
2024/01/25 07:25:16;;;;;;;;;;;17.40;61.10;;;;;;5036066;28;1706;-69
2024/01/25 07:27:45;;;;;;;;;;;17.40;61.20;;;;;;5047207;28;1349;-68
2024/01/25 07:30:12;;;;;;;;;;;17.40;61.20;;;;;;5040098;28;1981;-69
2024/01/25 07:32:42;;;;;;;;;;;17.40;61.20;;;;;;5039115;28;1018;-70
2024/01/25 07:35:10;;;;;;;;;;;17.40;61.20;;;;;;5039834;28;937;-70
2024/01/25 07:37:36;;;;;;;;;;;17.40;61.30;;;;;;5039125;28;1640;-69
2024/01/25 07:40:03;;;;;;;;;;;17.40;61.30;;;;;;5057709;28;1176;-69
2024/01/25 07:42:29;;;;;;;;;;;17.40;62.00;;;;;;5038907;28;1068;-69
2024/01/25 07:44:54;;;;;;;;;;;17.40;61.30;;;;;;5038976;28;1547;-68
2024/01/25 07:47:20;;;;;;;;;;;17.40;61.30;;;;;;5037269;28;1690;-69
2024/01/25 07:49:45;;;;;;;;;;;17.30;61.30;;;;;;5040123;28;1890;-69
2024/01/25 07:52:11;;;;;;;;;;;17.30;61.30;;;;;;5040125;28;1595;-68
2024/01/25 07:54:36;;;;;;;;;;;17.30;61.30;;;;;;5043642;28;1163;-69
2024/01/25 07:57:02;;;;;;;;;;;17.30;61.40;;;;;;5046790;28;1367;-68
2024/01/25 07:59:27;;;;;;;;;;;17.30;61.40;;;;;;5044428;28;1033;-69
2024/01/25 08:01:53;;;;;;;;;;;17.30;61.40;;;;;;5038611;28;1136;-67
2024/01/25 08:04:18;;;;;;;;;;;17.30;61.40;;;;;;5049118;28;1360;-68
2024/01/25 08:06:44;;;;;;;;;;;17.30;61.40;;;;;;5073517;28;1410;-68
2024/01/25 08:09:09;;;;;;;;;;;17.30;61.50;;;;;;5035775;28;1914;-68
2024/01/25 08:11:35;;;;;;;;;;;17.30;61.50;;;;;;5040172;28;1559;-68
2024/01/25 08:14:00;;;;;;;;;;;17.30;61.50;;;;;;5038934;28;1497;-68
2024/01/25 08:16:26;;;;;;;;;;;17.30;61.60;;;;;;5041888;28;1534;-69
2024/01/25 08:18:52;;;;;;;;;;;17.30;61.60;;;;;;5069293;28;1465;-69
2024/01/25 08:21:17;;;;;;;;;;;17.30;61.50;;;;;;5037301;28;1337;-69
2024/01/25 08:23:43;;;;;;;;;;;17.30;61.60;;;;;;5068835;28;1591;-69
2024/01/25 08:26:09;;;;;;;;;;;17.30;61.60;;;;;;5073793;28;1617;-69
2024/01/25 08:28:44;;;;;;;;;;;17.30;61.60;;;;;;5037358;28;1952;-68
2024/01/25 08:31:10;;;;;;;;;;;17.30;61.60;;;;;;5038028;28;1518;-69
2024/01/25 08:33:35;;;;;;;;;;;17.30;61.70;;;;;;5038679;28;1194;-68
2024/01/25 08:36:01;;;;;;;;;;;17.30;61.60;;;;;;5045792;28;1386;-69
2024/01/25 08:38:26;;;;;;;;;;;17.30;61.70;;;;;;5039207;28;1370;-69
2024/01/25 08:40:52;;;;;;;;;;;17.30;61.70;;;;;;5038428;28;1456;-69
2024/01/25 08:43:17;;;;;;;;;;;17.30;61.70;;;;;;5041261;28;1256;-69
2024/01/25 08:45:43;;;;;;;;;;;17.30;61.60;;;;;;5039390;28;1418;-69
2024/01/25 08:48:08;;;;;;;;;;;17.30;61.70;;;;;;5038926;28;1949;-69
2024/01/25 08:50:35;;;;;;;;;;;17.30;61.60;;;;;;5036091;28;1408;-69
2024/01/25 08:53:00;;;;;;;;;;;17.30;61.60;;;;;;5069557;28;1522;-69
2024/01/25 08:55:26;;;;;;;;;;;17.30;61.50;;;;;;5041468;28;1737;-69
2024/01/25 08:57:51;;;;;;;;;;;17.30;61.40;;;;;;5040274;28;1469;-69
2024/01/25 09:00:18;;;;;;;;;;;17.40;61.40;;;;;;5041150;28;1379;-68
2024/01/25 09:02:43;;;;;;;;;;;17.40;61.40;;;;;;5065697;28;1641;-69
2024/01/25 09:05:09;;;;;;;;;;;17.40;61.30;;;;;;5037830;28;1510;-69
2024/01/25 09:07:34;;;;;;;;;;;17.40;61.20;;;;;;5038356;28;1343;-68
2024/01/25 09:10:00;;;;;;;;;;;17.40;61.20;;;;;;5037837;28;1910;-69
2024/01/25 09:12:25;;;;;;;;;;;17.40;61.10;;;;;;5035706;28;1401;-69
2024/01/25 09:14:51;;;;;;;;;;;17.40;61.00;;;;;;5071295;28;1668;-68
2024/01/25 09:17:21;;;;;;;;;;;17.50;61.80;;;;;;5039835;28;1621;-69
2024/01/25 09:19:50;;;;;;;;;;;17.50;61.00;;;;;;5036096;28;1383;-69
2024/01/25 09:22:17;;;;;;;;;;;17.50;61.00;;;;;;5070255;28;1499;-68
2024/01/25 09:24:43;;;;;;;;;;;17.50;60.90;;;;;;5035255;28;1591;-69
2024/01/25 09:27:08;;;;;;;;;;;17.50;60.90;;;;;;5037839;28;1677;-69
2024/01/25 09:29:34;;;;;;;;;;;17.50;60.90;;;;;;5038898;28;1898;-68
2024/01/25 09:31:59;;;;;;;;;;;17.50;60.90;;;;;;5037162;28;1378;-68
2024/01/25 09:34:25;;;;;;;;;;;17.50;60.90;;;;;;5039774;28;1770;-68
2024/01/25 09:36:51;;;;;;;;;;;17.50;60.90;;;;;;5038971;28;1652;-68
2024/01/25 09:39:17;;;;;;;;;;;17.50;60.90;;;;;;5039457;28;1537;-68
2024/01/25 09:41:45;;;;;;;;;;;17.50;61.00;;;;;;5037493;28;1461;-67
2024/01/25 09:44:11;;;;;;;;;;;17.50;61.00;;;;;;5041056;28;1398;-69
2024/01/25 09:46:36;;;;;;;;;;;17.50;61.00;;;;;;5042604;28;1382;-69
2024/01/25 09:49:02;;;;;;;;;;;17.50;61.10;;;;;;5060293;28;1975;-69
2024/01/25 09:51:30;;;;;;;;;;;17.40;61.00;;;;;;5046718;28;1562;-67
2024/01/25 09:53:55;;;;;;;;;;;17.40;61.00;;;;;;5048988;28;1339;-67
2024/01/25 09:56:21;;;;;;;;;;;17.40;61.00;;;;;;5050081;28;1367;-68
2024/01/25 09:58:47;;;;;;;;;;;17.40;61.10;;;;;;5042375;28;1647;-70
2024/01/25 10:01:12;;;;;;;;;;;17.40;61.00;;;;;;5040399;28;1455;-68
2024/01/25 10:03:47;;;;;;;;;;;17.40;61.00;;;;;;5041601;28;1563;-68
2024/01/25 10:06:12;;;;;;;;;;;17.40;61.00;;;;;;5041183;28;1487;-67
2024/01/25 10:08:38;;;;;;;;;;;17.50;61.00;;;;;;5058469;28;1910;-67
2024/01/25 10:11:03;;;;;;;;;;;17.50;61.10;;;;;;5058107;28;1571;-68
2024/01/25 10:13:29;;;;;;;;;;;17.50;61.00;;;;;;5043462;28;1464;-68
2024/01/25 10:15:55;;;;;;;;;;;17.50;61.00;;;;;;5074110;28;1613;-67
2024/01/25 10:18:22;;;;;;;;;;;17.50;61.00;;;;;;5038930;28;1368;-67
2024/01/25 10:20:47;;;;;;;;;;;17.50;60.90;;;;;;5072029;28;2019;-69
2024/01/25 10:23:13;;;;;;;;;;;17.50;60.90;;;;;;5036741;28;2163;-68
2024/01/25 10:25:38;;;;;;;;;;;17.50;60.90;;;;;;5051703;28;1936;-68
2024/01/25 10:28:04;;;;;;;;;;;17.50;60.90;;;;;;5041500;28;2015;-68
2024/01/25 10:30:36;;;;;;;;;;;17.50;60.80;;;;;;5041756;28;1298;-70
2024/01/25 10:33:01;;;;;;;;;;;17.50;60.80;;;;;;5048206;28;1388;-70
2024/01/25 10:35:27;;;;;;;;;;;17.50;60.80;;;;;;5040085;28;1547;-68
2024/01/25 10:37:53;;;;;;;;;;;17.50;60.80;;;;;;5073185;28;1558;-68
2024/01/25 10:40:19;;;;;;;;;;;17.50;60.80;;;;;;5040625;28;1469;-67
2024/01/25 10:42:44;;;;;;;;;;;17.50;60.80;;;;;;5042101;28;1178;-68
2024/01/25 10:45:10;;;;;;;;;;;17.50;60.80;;;;;;5042059;28;1099;-69
2024/01/25 10:47:35;;;;;;;;;;;17.50;60.80;;;;;;5039884;28;1635;-69
2024/01/25 10:50:02;;;;;;;;;;;17.50;60.70;;;;;;5038195;28;1934;-68
2024/01/25 10:52:28;;;;;;;;;;;17.50;60.70;;;;;;5043978;28;1605;-68
2024/01/25 10:54:54;;;;;;;;;;;17.50;60.70;;;;;;5040795;28;978;-68
2024/01/25 10:57:19;;;;;;;;;;;17.50;60.70;;;;;;5041554;28;1434;-68
2024/01/25 10:59:45;;;;;;;;;;;17.50;60.70;;;;;;5040103;28;1274;-68
2024/01/25 11:02:10;;;;;;;;;;;17.60;60.70;;;;;;5048426;28;1460;-67
2024/01/25 11:04:36;;;;;;;;;;;17.60;60.70;;;;;;5040327;28;1612;-69
2024/01/25 11:07:11;;;;;;;;;;;17.60;60.60;;;;;;5074167;28;1356;-68
2024/01/25 11:09:37;;;;;;;;;;;17.60;60.60;;;;;;5039301;28;2105;-69
2024/01/25 11:12:10;;;;;;;;;;;17.60;60.50;;;;;;5070967;28;1403;-68
2024/01/25 11:14:36;;;;;;;;;;;17.60;60.50;;;;;;5031519;28;1293;-68
2024/01/25 11:17:14;;;;;;;;;;;17.60;60.50;;;;;;5071291;28;1562;-69
2024/01/25 11:19:39;;;;;;;;;;;17.70;60.40;;;;;;5072430;28;1494;-68
2024/01/25 11:22:05;;;;;;;;;;;17.70;60.40;;;;;;5037341;28;1440;-70
2024/01/25 11:24:31;;;;;;;;;;;17.70;60.30;;;;;;5044606;28;1367;-69
2024/01/25 11:26:57;;;;;;;;;;;17.70;60.30;;;;;;5038057;28;2119;-67
2024/01/25 11:29:23;;;;;;;;;;;17.70;60.20;;;;;;5039080;28;1993;-68
2024/01/25 11:31:50;;;;;;;;;;;17.70;60.20;;;;;;5035683;28;1216;-68
2024/01/25 11:34:15;;;;;;;;;;;17.70;60.10;;;;;;5037883;28;1725;-70
2024/01/25 11:36:42;;;;;;;;;;;17.70;60.10;;;;;;5039971;28;1379;-68
2024/01/25 11:39:11;;;;;;;;;;;17.80;60.10;;;;;;5037445;28;1462;-70
2024/01/25 11:41:36;;;;;;;;;;;17.70;60.00;;;;;;5036683;28;1291;-68
2024/01/25 11:44:03;;;;;;;;;;;17.80;60.10;;;;;;5070529;28;1800;-68
2024/01/25 11:46:28;;;;;;;;;;;17.80;60.10;;;;;;5040553;28;1400;-68
2024/01/25 11:48:54;;;;;;;;;;;17.80;60.00;;;;;;5047434;28;1894;-69
2024/01/25 11:51:19;;;;;;;;;;;17.80;60.10;;;;;;5041917;28;1624;-68
2024/01/25 11:53:45;;;;;;;;;;;17.80;60.10;;;;;;5059987;28;1539;-68
2024/01/25 11:56:10;;;;;;;;;;;17.70;60.00;;;;;;5038640;28;1531;-68
2024/01/25 11:58:37;;;;;;;;;;;17.70;60.10;;;;;;5038858;28;1934;-69
2024/01/25 12:01:05;;;;;;;;;;;17.70;60.10;;;;;;5038991;28;1399;-69
2024/01/25 12:03:31;;;;;;;;;;;17.70;60.10;;;;;;5040438;28;1375;-69
2024/01/25 12:05:58;;;;;;;;;;;17.70;60.10;;;;;;5070074;28;1512;-69
2024/01/25 12:08:24;;;;;;;;;;;17.70;60.20;;;;;;5068774;28;1903;-68
2024/01/25 12:10:49;;;;;;;;;;;17.70;60.20;;;;;;5036986;28;1396;-68
2024/01/25 12:13:16;;;;;;;;;;;17.70;60.30;;;;;;5034746;28;1400;-69
2024/01/25 12:15:41;;;;;;;;;;;17.70;60.30;;;;;;5039833;28;1659;-68
2024/01/25 12:18:07;;;;;;;;;;;17.70;60.30;;;;;;5040138;28;1398;-68
2024/01/25 12:20:33;;;;;;;;;;;17.70;60.40;;;;;;5036796;28;1300;-69
2024/01/25 12:22:58;;;;;;;;;;;17.70;60.40;;;;;;5046636;28;1523;-69
2024/01/25 12:25:24;;;;;;;;;;;17.70;60.40;;;;;;5043461;28;1500;-69
2024/01/25 12:27:50;;;;;;;;;;;17.60;60.40;;;;;;5037268;28;1974;-69
2024/01/25 12:30:15;;;;;;;;;;;17.70;60.40;;;;;;5038543;28;2102;-69
2024/01/25 12:32:41;;;;;;;;;;;17.70;60.40;;;;;;5037403;28;1362;-69
2024/01/25 12:35:07;;;;;;;;;;;17.70;60.50;;;;;;5038565;28;1540;-68
2024/01/25 12:37:33;;;;;;;;;;;17.70;60.50;;;;;;5040174;28;1772;-69
2024/01/25 12:39:58;;;;;;;;;;;17.70;60.50;;;;;;5038297;28;1573;-69
2024/01/25 12:42:24;;;;;;;;;;;17.60;60.40;;;;;;5038075;28;1836;-69
2024/01/25 12:44:51;;;;;;;;;;;17.60;60.50;;;;;;5036326;28;1284;-69
2024/01/25 12:47:17;;;;;;;;;;;17.70;60.50;;;;;;5061892;28;1406;-69
2024/01/25 12:49:42;;;;;;;;;;;17.60;60.50;;;;;;5036172;28;1899;-69
2024/01/25 12:52:08;;;;;;;;;;;17.60;60.50;;;;;;5071871;28;1458;-69
2024/01/25 12:54:34;;;;;;;;;;;17.60;60.50;;;;;;5037129;28;1237;-69
2024/01/25 12:56:59;;;;;;;;;;;17.60;60.50;;;;;;5071535;28;1564;-69
2024/01/25 12:59:25;;;;;;;;;;;17.60;60.50;;;;;;5037953;28;1395;-69
2024/01/25 13:01:50;;;;;;;;;;;17.60;60.50;;;;;;5069620;28;1521;-69
2024/01/25 13:04:16;;;;;;;;;;;17.60;60.60;;;;;;5039737;28;1446;-70
2024/01/25 13:06:41;;;;;;;;;;;17.60;60.60;;;;;;5040436;28;1383;-69
2024/01/25 13:09:07;;;;;;;;;;;17.60;60.60;;;;;;5053404;28;1961;-69
2024/01/25 13:11:33;;;;;;;;;;;17.60;60.70;;;;;;5038973;28;1541;-70
2024/01/25 13:13:58;;;;;;;;;;;17.60;60.70;;;;;;5070487;28;1311;-70
2024/01/25 13:16:24;;;;;;;;;;;17.60;60.70;;;;;;5038133;28;1445;-69
2024/01/25 13:18:49;;;;;;;;;;;17.60;60.70;;;;;;5068654;28;1372;-70
2024/01/25 13:21:15;;;;;;;;;;;17.60;60.70;;;;;;5043497;28;1065;-69
2024/01/25 13:23:40;;;;;;;;;;;17.60;60.70;;;;;;5040618;28;1069;-68
2024/01/25 13:26:06;;;;;;;;;;;17.60;60.80;;;;;;5041111;28;1270;-70
2024/01/25 13:28:32;;;;;;;;;;;17.60;60.80;;;;;;5042458;28;1891;-71
2024/01/25 13:30:59;;;;;;;;;;;17.60;60.80;;;;;;5075138;28;1527;-69
2024/01/25 13:33:24;;;;;;;;;;;17.60;60.90;;;;;;5041295;28;1413;-68
2024/01/25 13:35:49;;;;;;;;;;;17.50;60.80;;;;;;5039322;28;1363;-71
2024/01/25 13:38:16;;;;;;;;;;;17.50;60.80;;;;;;5039944;28;1356;-69
2024/01/25 13:40:41;;;;;;;;;;;17.50;60.90;;;;;;5040876;28;1440;-69
2024/01/25 13:43:10;;;;;;;;;;;17.50;60.90;;;;;;5042592;28;1442;-68
2024/01/25 13:45:35;;;;;;;;;;;17.50;60.90;;;;;;5043894;28;1566;-68
2024/01/25 13:48:01;;;;;;;;;;;17.50;61.00;;;;;;5041439;28;2107;-68
2024/01/25 13:50:26;;;;;;;;;;;17.50;61.00;;;;;;5041831;28;1967;-66
2024/01/25 13:52:52;;;;;;;;;;;17.50;61.00;;;;;;5039211;28;1394;-66
2024/01/25 13:55:17;;;;;;;;;;;17.50;61.00;;;;;;5071918;28;1464;-67
2024/01/25 13:57:43;;;;;;;;;;;17.50;61.10;;;;;;5043525;28;1520;-65
2024/01/25 14:00:08;;;;;;;;;;;17.50;61.10;;;;;;5045677;28;1542;-65
2024/01/25 14:02:34;;;;;;;;;;;17.50;61.10;;;;;;5039472;28;1426;-65
2024/01/25 14:05:00;;;;;;;;;;;17.50;61.10;;;;;;5072056;28;1491;-67
2024/01/25 14:07:25;;;;;;;;;;;17.50;61.20;;;;;;5073665;28;1522;-66
2024/01/25 14:09:51;;;;;;;;;;;17.50;61.20;;;;;;5041030;28;1979;-68
2024/01/25 14:12:17;;;;;;;;;;;17.50;61.20;;;;;;5049762;28;1331;-67
2024/01/25 14:14:43;;;;;;;;;;;17.50;61.20;;;;;;5040656;28;1282;-67
2024/01/25 14:17:08;;;;;;;;;;;17.40;61.20;;;;;;5037844;28;2016;-67
2024/01/25 14:19:34;;;;;;;;;;;17.40;61.20;;;;;;5040445;28;1575;-67
2024/01/25 14:21:59;;;;;;;;;;;17.40;61.20;;;;;;5041288;28;1628;-67